createdAt,value
2018-01-23T00:00:58.674Z,0
2018-01-23T00:01:59.403Z,0
2018-01-23T00:03:00.188Z,0
2018-01-23T00:04:00.919Z,0
2018-01-23T00:05:01.698Z,0
2018-01-23T00:06:02.493Z,0
2018-01-23T00:07:03.241Z,0
2018-01-23T00:08:03.984Z,0
2018-01-23T00:09:04.775Z,0
2018-01-23T00:10:05.580Z,0
2018-01-23T00:11:06.283Z,0
2018-01-23T00:12:07.051Z,0
2018-01-23T00:13:07.760Z,0
2018-01-23T00:14:08.515Z,0
2018-01-23T00:15:09.233Z,0
2018-01-23T00:16:09.973Z,0
2018-01-23T00:17:10.815Z,0
2018-01-23T00:18:11.548Z,0
2018-01-23T00:19:12.340Z,0
2018-01-23T00:20:13.210Z,0
2018-01-23T00:21:13.966Z,0
2018-01-23T00:22:14.761Z,0
2018-01-23T00:23:15.500Z,0
2018-01-23T00:24:16.234Z,0
2018-01-23T00:25:16.974Z,0
2018-01-23T00:26:17.711Z,0
2018-01-23T00:27:18.432Z,0
2018-01-23T00:28:19.249Z,0
2018-01-23T00:29:19.980Z,0
2018-01-23T00:30:20.706Z,0
2018-01-23T00:31:21.435Z,0
2018-01-23T00:32:22.164Z,0
2018-01-23T00:33:22.898Z,0
2018-01-23T00:34:23.674Z,0
2018-01-23T00:35:24.414Z,0
2018-01-23T00:36:25.155Z,0
2018-01-23T00:37:25.882Z,0
2018-01-23T00:38:26.661Z,0
2018-01-23T00:39:27.376Z,0
2018-01-23T00:40:28.108Z,0
2018-01-23T00:41:28.834Z,0
2018-01-23T00:42:29.579Z,0
2018-01-23T00:43:30.360Z,0
2018-01-23T00:44:31.158Z,0
2018-01-23T00:45:31.884Z,0
2018-01-23T00:46:32.613Z,0
2018-01-23T00:47:33.432Z,0
2018-01-23T00:48:34.140Z,0
2018-01-23T00:49:34.998Z,0
2018-01-23T00:50:35.719Z,0
2018-01-23T00:51:36.445Z,0
2018-01-23T00:52:37.231Z,0
2018-01-23T00:53:37.971Z,0
2018-01-23T00:54:38.748Z,0
2018-01-23T00:55:39.460Z,0
2018-01-23T00:56:40.185Z,0
2018-01-23T00:57:40.920Z,0
2018-01-23T00:58:41.660Z,0
2018-01-23T00:59:42.497Z,0
2018-01-23T01:00:43.261Z,0
2018-01-23T01:01:44.049Z,0
2018-01-23T01:02:44.770Z,0
2018-01-23T01:03:45.499Z,0
2018-01-23T01:04:46.288Z,0
2018-01-23T01:05:47.002Z,0
2018-01-23T01:06:47.719Z,0
2018-01-23T01:07:48.460Z,0
2018-01-23T01:08:49.194Z,0
2018-01-23T01:09:49.990Z,0
2018-01-23T01:10:50.730Z,0
2018-01-23T01:11:51.479Z,0
2018-01-23T01:12:52.259Z,0
2018-01-23T01:13:52.982Z,0
2018-01-23T01:14:53.720Z,0
2018-01-23T01:15:54.439Z,0
2018-01-23T01:16:55.183Z,0
2018-01-23T01:17:55.899Z,0
2018-01-23T01:18:56.637Z,0
2018-01-23T01:19:57.360Z,0
2018-01-23T01:20:58.069Z,0
2018-01-23T01:21:58.798Z,0
2018-01-23T01:22:59.529Z,0
2018-01-23T01:24:00.258Z,0
2018-01-23T01:25:00.990Z,0
2018-01-23T01:26:01.727Z,0
2018-01-23T01:27:02.448Z,0
2018-01-23T01:28:03.172Z,0
2018-01-23T01:29:03.963Z,0
2018-01-23T01:30:05.111Z,0
2018-01-23T01:31:06.080Z,0
2018-01-23T01:32:06.803Z,0
2018-01-23T01:33:07.551Z,0
2018-01-23T01:34:08.339Z,0
2018-01-23T01:35:09.149Z,0
2018-01-23T01:36:09.865Z,0
2018-01-23T01:37:10.594Z,0
2018-01-23T01:38:11.315Z,0
2018-01-23T01:39:12.048Z,0
2018-01-23T01:40:12.777Z,0
2018-01-23T01:41:13.507Z,0
2018-01-23T01:42:14.235Z,0
2018-01-23T01:43:14.968Z,0
2018-01-23T01:44:15.688Z,0
2018-01-23T01:45:16.457Z,0
2018-01-23T01:46:17.210Z,0
2018-01-23T01:47:17.959Z,0
2018-01-23T01:48:18.691Z,0
2018-01-23T01:49:19.415Z,0
2018-01-23T01:50:20.274Z,0
2018-01-23T01:51:21.037Z,0
2018-01-23T01:52:21.761Z,0
2018-01-23T01:53:22.540Z,0
2018-01-23T01:54:23.265Z,0
2018-01-23T01:55:24.055Z,0
2018-01-23T01:56:24.837Z,0
2018-01-23T01:57:25.569Z,0
2018-01-23T01:58:26.283Z,0
2018-01-23T01:59:27.002Z,0
2018-01-23T02:00:27.742Z,0
2018-01-23T02:01:28.519Z,0
2018-01-23T02:02:29.280Z,0
2018-01-23T02:03:30.002Z,0
2018-01-23T02:04:30.731Z,0
2018-01-23T02:05:31.461Z,0
2018-01-23T02:06:32.303Z,0
2018-01-23T02:07:33.040Z,0
2018-01-23T02:08:33.770Z,0
2018-01-23T02:09:34.494Z,0
2018-01-23T02:10:35.229Z,0
2018-01-23T02:11:35.954Z,0
2018-01-23T02:12:36.679Z,0
2018-01-23T02:13:37.403Z,0
2018-01-23T02:14:38.139Z,0
2018-01-23T02:15:38.960Z,0
2018-01-23T02:16:39.989Z,0
2018-01-23T02:17:40.714Z,0
2018-01-23T02:18:41.446Z,0
2018-01-23T02:19:42.181Z,0
2018-01-23T02:20:42.917Z,0
2018-01-23T02:21:43.700Z,0
2018-01-23T02:22:44.439Z,0
2018-01-23T02:23:45.159Z,0
2018-01-23T02:24:45.889Z,0
2018-01-23T02:25:46.681Z,0
2018-01-23T02:26:47.411Z,0
2018-01-23T02:27:48.182Z,0
2018-01-23T02:28:49.014Z,0
2018-01-23T02:29:49.797Z,0
2018-01-23T02:30:50.514Z,0
2018-01-23T02:31:51.254Z,0
2018-01-23T02:32:52.012Z,0
2018-01-23T02:33:52.863Z,0
2018-01-23T02:34:53.647Z,0
2018-01-23T02:35:54.380Z,0
2018-01-23T02:36:55.092Z,0
2018-01-23T02:37:55.900Z,0
2018-01-23T02:38:56.620Z,0
2018-01-23T02:39:57.439Z,0
2018-01-23T02:40:58.143Z,0
2018-01-23T02:41:58.879Z,0
2018-01-23T02:42:59.608Z,0
2018-01-23T02:44:00.341Z,0
2018-01-23T02:45:01.060Z,0
2018-01-23T02:46:01.787Z,0
2018-01-23T02:47:02.569Z,0
2018-01-23T02:48:03.290Z,0
2018-01-23T02:49:04.013Z,0
2018-01-23T02:50:04.731Z,0
2018-01-23T02:51:05.478Z,0
2018-01-23T02:52:06.209Z,0
2018-01-23T02:53:06.926Z,0
2018-01-23T02:54:07.740Z,0
2018-01-23T02:55:08.550Z,0
2018-01-23T02:56:09.284Z,0
2018-01-23T02:57:10.054Z,0
2018-01-23T02:58:10.777Z,0
2018-01-23T02:59:11.502Z,0
2018-01-23T03:00:12.230Z,0
2018-01-23T03:01:12.958Z,0
2018-01-23T03:02:13.639Z,0
2018-01-23T03:03:14.429Z,0
2018-01-23T03:04:15.155Z,0
2018-01-23T03:05:15.995Z,0
2018-01-23T03:06:16.725Z,0
2018-01-23T03:07:17.455Z,0
2018-01-23T03:08:18.181Z,0
2018-01-23T03:09:18.928Z,0
2018-01-23T03:10:19.957Z,0
2018-01-23T03:11:20.674Z,0
2018-01-23T03:12:21.398Z,0
2018-01-23T03:13:22.128Z,0
2018-01-23T03:14:22.858Z,0
2018-01-23T03:15:23.678Z,0
2018-01-23T03:16:24.420Z,0
2018-01-23T03:17:25.209Z,0
2018-01-23T03:18:25.940Z,0
2018-01-23T03:19:26.708Z,0
2018-01-23T03:20:27.488Z,0
2018-01-23T03:21:28.250Z,0
2018-01-23T03:22:29.007Z,0
2018-01-23T03:23:29.718Z,0
2018-01-23T03:24:30.500Z,0
2018-01-23T03:25:31.285Z,0
2018-01-23T03:26:32.106Z,0
2018-01-23T03:27:32.831Z,0
2018-01-23T03:28:33.563Z,0
2018-01-23T03:29:34.284Z,0
2018-01-23T03:30:35.332Z,0
2018-01-23T03:31:36.054Z,0
2018-01-23T03:32:36.780Z,0
2018-01-23T03:33:37.577Z,0
2018-01-23T03:34:38.302Z,0
2018-01-23T03:35:39.079Z,0
2018-01-23T03:36:39.869Z,0
2018-01-23T03:37:40.692Z,0
2018-01-23T03:38:41.408Z,0
2018-01-23T03:39:42.134Z,0
2018-01-23T03:40:42.911Z,0
2018-01-23T03:41:43.644Z,0
2018-01-23T03:42:44.373Z,0
2018-01-23T03:43:45.173Z,0
2018-01-23T03:44:45.911Z,0
2018-01-23T03:45:46.646Z,0
2018-01-23T03:46:47.421Z,0
2018-01-23T03:47:48.152Z,0
2018-01-23T03:48:48.922Z,0
2018-01-23T03:49:49.652Z,0
2018-01-23T03:50:50.391Z,0
2018-01-23T03:51:51.122Z,0
2018-01-23T03:52:51.842Z,0
2018-01-23T03:53:52.582Z,0
2018-01-23T03:54:53.311Z,0
2018-01-23T03:55:54.041Z,0
2018-01-23T03:56:54.768Z,0
2018-01-23T03:57:55.491Z,0
2018-01-23T03:58:56.236Z,0
2018-01-23T03:59:56.952Z,0
2018-01-23T04:00:57.791Z,0
2018-01-23T04:01:58.597Z,0
2018-01-23T04:02:59.329Z,0
2018-01-23T04:04:00.060Z,0
2018-01-23T04:05:00.789Z,0
2018-01-23T04:06:01.523Z,0
2018-01-23T04:07:02.276Z,0
2018-01-23T04:08:03.053Z,0
2018-01-23T04:09:03.790Z,0
2018-01-23T04:10:04.540Z,0
2018-01-23T04:11:05.341Z,0
2018-01-23T04:12:06.058Z,0
2018-01-23T04:13:06.792Z,0
2018-01-23T04:14:07.507Z,0
2018-01-23T04:15:08.252Z,0
2018-01-23T04:16:09.043Z,0
2018-01-23T04:17:09.874Z,0
2018-01-23T04:18:10.637Z,0
2018-01-23T04:19:11.375Z,0
2018-01-23T04:20:12.122Z,0
2018-01-23T04:21:12.946Z,0
2018-01-23T04:22:13.696Z,0
2018-01-23T04:23:14.419Z,0
2018-01-23T04:24:15.173Z,0
2018-01-23T04:25:15.902Z,0
2018-01-23T04:26:16.932Z,0
2018-01-23T04:27:17.661Z,0
2018-01-23T04:28:18.402Z,0
2018-01-23T04:29:19.179Z,0
2018-01-23T04:30:19.924Z,0
2018-01-23T04:31:20.732Z,0
2018-01-23T04:32:21.482Z,0
2018-01-23T04:33:22.211Z,0
2018-01-23T04:34:23.012Z,0
2018-01-23T04:35:23.745Z,0
2018-01-23T04:36:24.523Z,0
2018-01-23T04:37:25.605Z,0
2018-01-23T04:38:26.410Z,0
2018-01-23T04:39:27.148Z,0
2018-01-23T04:40:27.946Z,0
2018-01-23T04:41:28.679Z,0
2018-01-23T04:42:29.485Z,0
2018-01-23T04:43:30.209Z,0
2018-01-23T04:44:30.941Z,0
2018-01-23T04:45:31.672Z,0
2018-01-23T04:46:32.408Z,0
2018-01-23T04:47:33.142Z,0
2018-01-23T04:48:33.923Z,0
2018-01-23T04:49:34.638Z,0
2018-01-23T04:50:35.368Z,0
2018-01-23T04:51:36.153Z,0
2018-01-23T04:52:36.943Z,0
2018-01-23T04:53:37.689Z,0
2018-01-23T04:54:38.412Z,0
2018-01-23T04:55:39.145Z,0
2018-01-23T04:56:39.882Z,0
2018-01-23T04:57:40.678Z,0
2018-01-23T04:58:41.419Z,0
2018-01-23T04:59:42.233Z,0
2018-01-23T05:00:42.958Z,0
2018-01-23T05:01:43.687Z,0
2018-01-23T05:02:44.406Z,0
2018-01-23T05:03:45.485Z,0
2018-01-23T05:04:46.262Z,0
2018-01-23T05:05:47.008Z,0
2018-01-23T05:06:47.779Z,0
2018-01-23T05:07:48.500Z,0
2018-01-23T05:08:49.482Z,0
2018-01-23T05:09:50.285Z,0
2018-01-23T05:10:51.075Z,0
2018-01-23T05:11:51.821Z,0
2018-01-23T05:12:52.538Z,0
2018-01-23T05:13:53.518Z,0
2018-01-23T05:14:54.234Z,0
2018-01-23T05:15:54.972Z,0
2018-01-23T05:16:55.690Z,0
2018-01-23T05:17:56.424Z,0
2018-01-23T05:18:57.230Z,0
2018-01-23T05:19:58.031Z,0
2018-01-23T05:20:58.764Z,0
2018-01-23T05:21:59.582Z,0
2018-01-23T05:23:00.424Z,0
2018-01-23T05:24:01.102Z,0
2018-01-23T05:25:01.913Z,0
2018-01-23T05:26:02.647Z,0
2018-01-23T05:27:03.459Z,0
2018-01-23T05:28:04.198Z,0
2018-01-23T05:29:04.921Z,0
2018-01-23T05:30:05.909Z,0
2018-01-23T05:31:06.682Z,0
2018-01-23T05:32:07.414Z,0
2018-01-23T05:33:08.244Z,0
2018-01-23T05:34:09.062Z,0
2018-01-23T05:35:09.867Z,0
2018-01-23T05:36:10.603Z,0
2018-01-23T05:37:11.526Z,0
2018-01-23T05:38:12.247Z,0
2018-01-23T05:39:13.062Z,0
2018-01-23T05:40:13.788Z,0
2018-01-23T05:41:14.524Z,0
2018-01-23T05:42:15.297Z,0
2018-01-23T05:43:16.104Z,0
2018-01-23T05:44:16.903Z,0
2018-01-23T05:45:17.709Z,0
2018-01-23T05:46:18.514Z,0
2018-01-23T05:47:19.313Z,0
2018-01-23T05:48:20.048Z,0
2018-01-23T05:49:20.800Z,0
2018-01-23T05:50:21.624Z,0
2018-01-23T05:51:22.420Z,0
2018-01-23T05:52:23.244Z,0
2018-01-23T05:53:23.998Z,0
2018-01-23T05:54:24.721Z,0
2018-01-23T05:55:25.465Z,0
2018-01-23T05:56:26.259Z,0
2018-01-23T05:57:26.981Z,0
2018-01-23T05:58:27.723Z,0
2018-01-23T05:59:28.464Z,0
2018-01-23T06:00:29.272Z,0
2018-01-23T06:01:29.944Z,0
2018-01-23T06:02:30.749Z,0
2018-01-23T06:03:31.461Z,0
2018-01-23T06:04:32.256Z,0
2018-01-23T06:05:33.058Z,0
2018-01-23T06:06:33.869Z,0
2018-01-23T06:07:34.593Z,0
2018-01-23T06:08:35.360Z,0
2018-01-23T06:09:36.145Z,0
2018-01-23T06:10:36.952Z,0
2018-01-23T06:11:37.692Z,0
2018-01-23T06:12:38.426Z,0
2018-01-23T06:13:39.174Z,0
2018-01-23T06:14:40.027Z,0
2018-01-23T06:15:40.797Z,0
2018-01-23T06:16:41.573Z,0
2018-01-23T06:17:42.304Z,0
2018-01-23T06:18:43.027Z,0
2018-01-23T06:19:43.782Z,0
2018-01-23T06:20:44.523Z,0
2018-01-23T06:21:45.367Z,0
2018-01-23T06:22:46.090Z,0
2018-01-23T06:23:46.829Z,0
2018-01-23T06:24:47.627Z,0
2018-01-23T06:25:48.398Z,0
2018-01-23T06:26:49.127Z,0
2018-01-23T06:27:49.860Z,0
2018-01-23T06:28:50.649Z,0
2018-01-23T06:29:51.384Z,0
2018-01-23T06:30:52.109Z,0
2018-01-23T06:31:52.846Z,0
2018-01-23T06:32:53.574Z,0
2018-01-23T06:33:54.338Z,0
2018-01-23T06:34:55.129Z,0
2018-01-23T06:35:55.863Z,0
2018-01-23T06:36:56.580Z,0
2018-01-23T06:37:57.376Z,0
2018-01-23T06:38:58.192Z,0
2018-01-23T06:39:58.916Z,0
2018-01-23T06:40:59.709Z,0
2018-01-23T06:42:00.498Z,0
2018-01-23T06:43:01.234Z,0
2018-01-23T06:44:02.103Z,4
2018-01-23T06:45:02.815Z,0
2018-01-23T06:46:03.555Z,0
2018-01-23T06:47:04.399Z,0
2018-01-23T06:48:05.200Z,4
2018-01-23T06:49:05.923Z,4
2018-01-23T06:50:06.648Z,4
2018-01-23T06:51:07.383Z,8
2018-01-23T06:52:08.209Z,8
2018-01-23T06:53:08.930Z,12
2018-01-23T06:54:09.659Z,12
2018-01-23T06:55:10.399Z,16
2018-01-23T06:56:11.122Z,20
2018-01-23T06:57:11.904Z,20
2018-01-23T06:58:12.699Z,20
2018-01-23T06:59:13.433Z,20
2018-01-23T07:00:14.165Z,28
2018-01-23T07:01:14.991Z,32
2018-01-23T07:02:15.730Z,36
2018-01-23T07:03:16.543Z,52
2018-01-23T07:04:17.273Z,64
2018-01-23T07:05:18.010Z,76
2018-01-23T07:06:18.737Z,96
2018-01-23T07:07:19.495Z,92
2018-01-23T07:08:20.391Z,100
2018-01-23T07:09:21.059Z,116
2018-01-23T07:10:21.793Z,128
2018-01-23T07:11:22.518Z,132
2018-01-23T07:12:23.269Z,132
2018-01-23T07:13:24.018Z,164
2018-01-23T07:14:24.745Z,204
2018-01-23T07:15:25.487Z,220
2018-01-23T07:16:26.233Z,224
2018-01-23T07:17:27.027Z,236
2018-01-23T07:18:27.843Z,268
2018-01-23T07:19:28.638Z,296
2018-01-23T07:20:29.378Z,284
2018-01-23T07:21:30.113Z,320
2018-01-23T07:22:30.900Z,384
2018-01-23T07:23:31.708Z,452
2018-01-23T07:24:32.442Z,528
2018-01-23T07:25:33.171Z,580
2018-01-23T07:26:33.899Z,552
2018-01-23T07:27:34.650Z,604
2018-01-23T07:28:35.502Z,712
2018-01-23T07:29:36.267Z,744
2018-01-23T07:30:37.034Z,768
2018-01-23T07:31:37.775Z,840
2018-01-23T07:32:38.503Z,952
2018-01-23T07:33:39.294Z,984
2018-01-23T07:34:40.044Z,988
2018-01-23T07:35:40.840Z,960
2018-01-23T07:36:41.560Z,984
2018-01-23T07:37:42.313Z,1060
2018-01-23T07:38:43.103Z,1032
2018-01-23T07:39:43.844Z,1044
2018-01-23T07:40:44.648Z,1100
2018-01-23T07:41:45.411Z,976
2018-01-23T07:42:47.126Z,952
2018-01-23T07:43:47.808Z,1004
2018-01-23T07:44:48.588Z,1064
2018-01-23T07:45:49.321Z,1060
2018-01-23T07:46:50.974Z,1172
2018-01-23T07:47:51.993Z,1320
2018-01-23T07:48:52.805Z,1400
2018-01-23T07:49:53.602Z,1768
2018-01-23T07:50:54.346Z,1780
2018-01-23T07:51:55.069Z,1936
2018-01-23T07:52:55.808Z,1904
2018-01-23T07:53:56.567Z,1872
2018-01-23T07:54:57.292Z,1768
2018-01-23T07:55:58.024Z,1796
2018-01-23T07:56:58.820Z,1992
2018-01-23T07:57:59.811Z,2084
2018-01-23T07:59:00.584Z,1868
2018-01-23T08:00:01.367Z,1988
2018-01-23T08:01:02.158Z,2032
2018-01-23T08:02:02.877Z,2120
2018-01-23T08:03:03.602Z,2452
2018-01-23T08:04:04.320Z,2208
2018-01-23T08:05:05.043Z,2248
2018-01-23T08:06:05.770Z,2360
2018-01-23T08:07:06.488Z,2296
2018-01-23T08:08:07.281Z,2088
2018-01-23T08:09:08.084Z,1896
2018-01-23T08:10:08.885Z,2060
2018-01-23T08:11:09.620Z,2072
2018-01-23T08:12:10.412Z,2016
2018-01-23T08:13:11.198Z,2248
2018-01-23T08:14:11.932Z,2132
2018-01-23T08:15:12.659Z,2180
2018-01-23T08:16:13.393Z,2276
2018-01-23T08:17:14.133Z,2392
2018-01-23T08:18:14.997Z,2480
2018-01-23T08:19:15.811Z,2688
2018-01-23T08:20:16.542Z,2764
2018-01-23T08:21:17.273Z,2976
2018-01-23T08:22:18.014Z,3116
2018-01-23T08:23:18.759Z,3240
2018-01-23T08:24:19.557Z,3392
2018-01-23T08:25:20.303Z,3120
2018-01-23T08:26:21.052Z,2808
2018-01-23T08:27:22.076Z,2684
2018-01-23T08:28:22.888Z,3300
2018-01-23T08:29:23.632Z,3480
2018-01-23T08:30:24.446Z,3700
2018-01-23T08:31:25.187Z,3284
2018-01-23T08:32:25.919Z,3548
2018-01-23T08:33:26.650Z,2792
2018-01-23T08:34:27.460Z,2932
2018-01-23T08:35:28.200Z,3696
2018-01-23T08:36:28.983Z,3180
2018-01-23T08:37:29.813Z,3524
2018-01-23T08:38:30.551Z,3652
2018-01-23T08:39:31.272Z,4152
2018-01-23T08:40:32.002Z,3680
2018-01-23T08:41:32.738Z,4728
2018-01-23T08:42:33.467Z,4736
2018-01-23T08:43:34.193Z,4028
2018-01-23T08:44:34.945Z,4148
2018-01-23T08:45:35.963Z,4372
2018-01-23T08:46:36.711Z,4332
2018-01-23T08:47:37.490Z,4196
2018-01-23T08:48:38.222Z,4140
2018-01-23T08:49:38.949Z,4160
2018-01-23T08:50:39.696Z,3720
2018-01-23T08:51:40.433Z,4212
2018-01-23T08:52:41.210Z,3788
2018-01-23T08:53:41.938Z,4060
2018-01-23T08:54:42.683Z,4808
2018-01-23T08:55:43.412Z,5204
2018-01-23T08:56:44.250Z,4860
2018-01-23T08:57:45.007Z,5464
2018-01-23T08:58:45.712Z,5252
2018-01-23T08:59:46.490Z,5596
2018-01-23T09:00:47.228Z,5412
2018-01-23T09:01:47.997Z,5148
2018-01-23T09:02:48.732Z,5544
2018-01-23T09:03:49.474Z,5684
2018-01-23T09:04:50.225Z,6136
2018-01-23T09:05:51.038Z,5848
2018-01-23T09:06:51.813Z,5536
2018-01-23T09:07:52.541Z,5720
2018-01-23T09:08:53.356Z,4852
2018-01-23T09:09:54.089Z,4572
2018-01-23T09:10:54.844Z,4080
2018-01-23T09:11:55.662Z,5012
2018-01-23T09:12:56.404Z,5296
2018-01-23T09:13:57.235Z,5864
2018-01-23T09:14:58.054Z,6280
2018-01-23T09:15:58.790Z,6252
2018-01-23T09:16:59.518Z,5700
2018-01-23T09:18:00.263Z,6100
2018-01-23T09:19:01.039Z,7424
2018-01-23T09:20:01.836Z,6900
2018-01-23T09:21:02.564Z,6936
2018-01-23T09:22:03.291Z,7272
2018-01-23T09:23:04.029Z,8064
2018-01-23T09:24:04.759Z,8208
2018-01-23T09:25:05.779Z,7704
2018-01-23T09:26:06.570Z,9648
2018-01-23T09:27:07.367Z,8980
2018-01-23T09:28:08.127Z,9336
2018-01-23T09:29:08.923Z,9248
2018-01-23T09:30:09.977Z,9468
2018-01-23T09:31:10.758Z,10456
2018-01-23T09:32:11.561Z,10016
2018-01-23T09:33:12.278Z,9756
2018-01-23T09:34:13.023Z,10288
2018-01-23T09:35:13.868Z,10528
2018-01-23T09:36:14.602Z,10692
2018-01-23T09:37:15.353Z,11212
2018-01-23T09:38:16.093Z,10868
2018-01-23T09:39:16.827Z,11352
2018-01-23T09:40:17.677Z,11728
2018-01-23T09:41:18.422Z,11708
2018-01-23T09:42:19.153Z,11044
2018-01-23T09:43:19.948Z,11128
2018-01-23T09:44:20.692Z,10944
2018-01-23T09:45:21.412Z,10732
2018-01-23T09:46:22.135Z,10284
2018-01-23T09:47:22.873Z,10264
2018-01-23T09:48:23.664Z,10724
2018-01-23T09:49:24.464Z,11304
2018-01-23T09:50:25.189Z,12900
2018-01-23T09:51:25.931Z,14108
2018-01-23T09:52:26.667Z,13704
2018-01-23T09:53:27.513Z,14604
2018-01-23T09:54:28.300Z,14972
2018-01-23T09:55:29.041Z,15608
2018-01-23T09:56:29.770Z,14752
2018-01-23T09:57:30.590Z,14028
2018-01-23T09:58:31.627Z,12992
2018-01-23T09:59:32.370Z,12620
2018-01-23T10:00:33.163Z,11096
2018-01-23T10:01:33.889Z,9700
2018-01-23T10:02:34.619Z,10472
2018-01-23T10:03:35.483Z,10136
2018-01-23T10:04:36.211Z,9948
2018-01-23T10:05:36.941Z,10980
2018-01-23T10:06:37.721Z,11156
2018-01-23T10:07:38.413Z,11032
2018-01-23T10:08:39.242Z,10684
2018-01-23T10:09:39.987Z,10016
2018-01-23T10:10:40.732Z,10084
2018-01-23T10:11:41.463Z,11668
2018-01-23T10:12:42.208Z,11476
2018-01-23T10:13:43.016Z,10800
2018-01-23T10:14:43.811Z,11996
2018-01-23T10:15:44.554Z,12516
2018-01-23T10:16:45.358Z,14524
2018-01-23T10:17:46.094Z,14580
2018-01-23T10:18:46.829Z,14184
2018-01-23T10:19:47.633Z,13412
2018-01-23T10:20:48.360Z,13464
2018-01-23T10:21:49.177Z,12192
2018-01-23T10:22:49.926Z,11492
2018-01-23T10:23:50.742Z,10956
2018-01-23T10:24:51.482Z,11224
2018-01-23T10:25:52.267Z,11648
2018-01-23T10:26:53.032Z,11784
2018-01-23T10:27:53.782Z,12040
2018-01-23T10:28:54.512Z,11384
2018-01-23T10:29:55.243Z,10608
2018-01-23T10:30:56.129Z,10540
2018-01-23T10:31:56.884Z,10892
2018-01-23T10:32:57.624Z,11456
2018-01-23T10:33:58.431Z,11944
2018-01-23T10:34:59.173Z,11872
2018-01-23T10:35:59.965Z,11532
2018-01-23T10:37:00.698Z,11884
2018-01-23T10:38:01.433Z,11652
2018-01-23T10:39:02.169Z,11704
2018-01-23T10:40:02.969Z,12512
2018-01-23T10:41:03.742Z,12896
2018-01-23T10:42:04.571Z,12772
2018-01-23T10:43:05.349Z,13064
2018-01-23T10:44:06.139Z,14648
2018-01-23T10:45:06.889Z,15548
2018-01-23T10:46:07.703Z,15392
2018-01-23T10:47:08.442Z,15604
2018-01-23T10:48:09.173Z,15764
2018-01-23T10:49:09.909Z,17216
2018-01-23T10:50:10.640Z,17028
2018-01-23T10:51:11.385Z,16696
2018-01-23T10:52:12.114Z,16764
2018-01-23T10:53:12.928Z,17504
2018-01-23T10:54:13.753Z,18112
2018-01-23T10:55:14.559Z,18336
2018-01-23T10:56:15.362Z,18944
2018-01-23T10:57:16.099Z,18944
2018-01-23T10:58:16.822Z,18496
2018-01-23T10:59:17.580Z,17760
2018-01-23T11:00:18.399Z,16416
2018-01-23T11:01:19.145Z,16012
2018-01-23T11:02:19.882Z,15224
2018-01-23T11:03:20.652Z,14244
2018-01-23T11:04:21.401Z,13428
2018-01-23T11:05:22.128Z,12840
2018-01-23T11:06:22.872Z,12252
2018-01-23T11:07:23.594Z,12028
2018-01-23T11:08:24.333Z,12972
2018-01-23T11:09:25.118Z,13640
2018-01-23T11:10:25.922Z,13956
2018-01-23T11:11:26.671Z,14148
2018-01-23T11:12:27.414Z,13996
2018-01-23T11:13:28.147Z,14492
2018-01-23T11:14:28.955Z,14536
2018-01-23T11:15:30.091Z,14104
2018-01-23T11:16:30.817Z,13784
2018-01-23T11:17:31.559Z,13244
2018-01-23T11:18:32.303Z,12408
2018-01-23T11:19:33.036Z,12024
2018-01-23T11:20:33.874Z,11208
2018-01-23T11:21:34.964Z,11056
2018-01-23T11:22:35.702Z,11616
2018-01-23T11:23:36.441Z,11268
2018-01-23T11:24:37.171Z,10932
2018-01-23T11:25:37.911Z,11268
2018-01-23T11:26:38.701Z,10732
2018-01-23T11:27:39.442Z,10612
2018-01-23T11:28:40.172Z,11112
2018-01-23T11:29:40.922Z,11720
2018-01-23T11:30:41.661Z,12636
2018-01-23T11:31:42.437Z,13504
2018-01-23T11:32:43.197Z,13732
2018-01-23T11:33:43.989Z,12988
2018-01-23T11:34:44.811Z,12904
2018-01-23T11:35:45.551Z,12228
2018-01-23T11:36:46.372Z,10284
2018-01-23T11:37:47.181Z,9848
2018-01-23T11:38:47.909Z,10988
2018-01-23T11:39:48.653Z,11864
2018-01-23T11:40:49.453Z,12724
2018-01-23T11:41:50.260Z,13760
2018-01-23T11:42:51.082Z,14536
2018-01-23T11:43:51.812Z,14760
2018-01-23T11:44:52.585Z,13888
2018-01-23T11:45:53.401Z,13448
2018-01-23T11:46:54.144Z,13656
2018-01-23T11:47:54.958Z,14844
2018-01-23T11:48:55.700Z,15076
2018-01-23T11:49:56.503Z,14844
2018-01-23T11:50:57.314Z,14584
2018-01-23T11:51:58.057Z,14548
2018-01-23T11:52:58.881Z,14096
2018-01-23T11:53:59.621Z,14444
2018-01-23T11:55:00.406Z,14288
2018-01-23T11:56:01.144Z,13316
2018-01-23T11:57:01.932Z,13328
2018-01-23T11:58:02.679Z,13540
2018-01-23T11:59:03.431Z,12968
2018-01-23T12:00:04.236Z,11768
2018-01-23T12:01:05.028Z,11916
2018-01-23T12:02:05.765Z,11412
2018-01-23T12:03:06.511Z,11180
2018-01-23T12:04:07.286Z,11224
2018-01-23T12:05:08.332Z,10280
2018-01-23T12:06:09.060Z,9564
2018-01-23T12:07:09.869Z,8928
2018-01-23T12:08:10.622Z,8712
2018-01-23T12:09:11.422Z,9020
2018-01-23T12:10:12.152Z,8832
2018-01-23T12:11:12.881Z,9696
2018-01-23T12:12:13.614Z,10372
2018-01-23T12:13:14.351Z,10632
2018-01-23T12:14:15.102Z,10888
2018-01-23T12:15:15.962Z,11020
2018-01-23T12:16:16.711Z,11348
2018-01-23T12:17:17.455Z,11916
2018-01-23T12:18:18.195Z,12340
2018-01-23T12:19:18.975Z,12160
2018-01-23T12:20:19.655Z,12100
2018-01-23T12:21:20.377Z,12328
2018-01-23T12:22:22.204Z,12040
2018-01-23T12:23:23.234Z,12148
2018-01-23T12:24:24.011Z,11920
2018-01-23T12:25:25.068Z,12060
2018-01-23T12:26:25.841Z,11948
2018-01-23T12:27:26.613Z,12156
2018-01-23T12:28:27.365Z,12676
2018-01-23T12:29:28.214Z,12096
2018-01-23T12:30:28.961Z,11116
2018-01-23T12:31:29.644Z,9936
2018-01-23T12:32:30.376Z,9576
2018-01-23T12:33:31.121Z,9852
2018-01-23T12:34:31.875Z,10240
2018-01-23T12:35:32.691Z,10752
2018-01-23T12:36:33.400Z,10544
2018-01-23T12:37:34.131Z,10544
2018-01-23T12:38:34.871Z,10600
2018-01-23T12:39:35.617Z,10716
2018-01-23T12:40:36.351Z,10624
2018-01-23T12:41:37.082Z,10536
2018-01-23T12:42:37.881Z,10328
2018-01-23T12:43:38.618Z,9864
2018-01-23T12:44:39.431Z,9656
2018-01-23T12:45:40.469Z,9496
2018-01-23T12:46:41.203Z,9032
2018-01-23T12:47:41.938Z,8348
2018-01-23T12:48:42.660Z,8172
2018-01-23T12:49:43.469Z,8392
2018-01-23T12:50:44.214Z,8792
2018-01-23T12:51:45.012Z,9036
2018-01-23T12:52:45.758Z,9132
2018-01-23T12:53:46.491Z,9056
2018-01-23T12:54:47.240Z,9080
2018-01-23T12:55:47.981Z,9428
2018-01-23T12:56:48.772Z,8932
2018-01-23T12:57:49.515Z,8732
2018-01-23T12:58:50.354Z,9328
2018-01-23T12:59:51.092Z,9504
2018-01-23T13:00:51.832Z,9300
2018-01-23T13:01:52.652Z,9492
2018-01-23T13:02:53.381Z,9980
2018-01-23T13:03:54.122Z,10244
2018-01-23T13:04:54.916Z,10116
2018-01-23T13:05:55.714Z,8872
2018-01-23T13:06:56.470Z,8172
2018-01-23T13:07:57.500Z,9032
2018-01-23T13:08:58.233Z,10188
2018-01-23T13:09:58.974Z,10208
2018-01-23T13:10:59.709Z,9840
2018-01-23T13:12:00.522Z,9624
2018-01-23T13:13:01.264Z,9408
2018-01-23T13:14:02.001Z,9248
2018-01-23T13:15:02.802Z,9892
2018-01-23T13:16:03.600Z,9636
2018-01-23T13:17:04.406Z,8736
2018-01-23T13:18:05.455Z,7580
2018-01-23T13:19:06.259Z,7724
2018-01-23T13:20:07.011Z,8132
2018-01-23T13:21:07.738Z,8308
2018-01-23T13:22:08.440Z,8748
2018-01-23T13:23:09.185Z,7384
2018-01-23T13:24:09.972Z,6568
2018-01-23T13:25:10.716Z,6208
2018-01-23T13:26:11.452Z,6632
2018-01-23T13:27:12.432Z,6484
2018-01-23T13:28:13.168Z,6080
2018-01-23T13:29:13.900Z,4668
2018-01-23T13:30:14.713Z,6676
2018-01-23T13:31:15.448Z,7356
2018-01-23T13:32:16.190Z,7292
2018-01-23T13:33:16.924Z,7844
2018-01-23T13:34:17.657Z,8156
2018-01-23T13:35:18.490Z,7484
2018-01-23T13:36:19.230Z,6840
2018-01-23T13:37:19.967Z,6628
2018-01-23T13:38:20.748Z,6976
2018-01-23T13:39:21.556Z,7432
2018-01-23T13:40:22.290Z,7316
2018-01-23T13:41:23.097Z,7088
2018-01-23T13:42:23.829Z,7256
2018-01-23T13:43:24.627Z,7240
2018-01-23T13:44:25.657Z,6980
2018-01-23T13:45:26.500Z,7448
2018-01-23T13:46:27.186Z,7048
2018-01-23T13:47:27.914Z,6680
2018-01-23T13:48:28.697Z,6260
2018-01-23T13:49:29.432Z,6364
2018-01-23T13:50:30.163Z,6064
2018-01-23T13:51:31.026Z,5360
2018-01-23T13:52:31.759Z,4464
2018-01-23T13:53:32.500Z,4104
2018-01-23T13:54:33.228Z,4020
2018-01-23T13:55:33.957Z,4092
2018-01-23T13:56:35.003Z,3988
2018-01-23T13:57:35.786Z,3624
2018-01-23T13:58:36.530Z,3272
2018-01-23T13:59:37.337Z,3016
2018-01-23T14:00:38.126Z,3268
2018-01-23T14:01:38.855Z,4044
2018-01-23T14:02:39.644Z,4500
2018-01-23T14:03:40.478Z,4680
2018-01-23T14:04:41.226Z,4904
2018-01-23T14:05:41.993Z,4852
2018-01-23T14:06:42.719Z,4632